createdAt,value
2017-08-04T00:02:24.702Z,57.00
2017-08-04T00:05:26.067Z,56.40
2017-08-04T00:08:27.432Z,57.20
2017-08-04T00:11:29.528Z,56.40
2017-08-04T00:14:30.883Z,56.40
2017-08-04T00:17:32.244Z,56.90
2017-08-04T00:20:33.607Z,56.90
2017-08-04T00:23:35.005Z,56.00
2017-08-04T00:26:37.076Z,56.30
2017-08-04T00:29:39.172Z,56.40
2017-08-04T00:32:40.575Z,56.30
2017-08-04T00:35:42.280Z,55.70
2017-08-04T00:38:43.740Z,55.20
2017-08-04T00:41:45.113Z,57.00
2017-08-04T00:44:46.566Z,57.10
2017-08-04T00:47:47.968Z,56.60
2017-08-04T00:50:49.295Z,56.60
2017-08-04T00:53:50.670Z,57.00
2017-08-04T00:56:52.031Z,56.90
2017-08-04T00:59:53.411Z,57.50
2017-08-04T01:02:54.771Z,57.00
2017-08-04T01:05:56.197Z,57.80
2017-08-04T01:08:57.580Z,58.40
2017-08-04T01:11:58.920Z,58.30
2017-08-04T01:15:00.302Z,58.40
2017-08-04T01:18:01.930Z,58.90
2017-08-04T01:21:03.334Z,59.30
2017-08-04T01:24:04.719Z,59.90
2017-08-04T01:27:06.028Z,60.40
2017-08-04T01:30:07.448Z,60.80
2017-08-04T01:33:08.811Z,60.90
2017-08-04T01:36:10.229Z,61.50
2017-08-04T01:39:11.629Z,61.80
2017-08-04T01:42:13.716Z,61.80
2017-08-04T01:45:15.086Z,61.70
2017-08-04T01:48:16.454Z,61.70
2017-08-04T01:51:17.898Z,61.90
2017-08-04T01:54:19.303Z,61.60
2017-08-04T01:57:21.446Z,60.40
2017-08-04T02:00:22.839Z,60.40
2017-08-04T02:03:24.258Z,59.40
2017-08-04T02:06:25.736Z,59.50
2017-08-04T02:09:27.069Z,59.90
2017-08-04T02:12:29.184Z,59.60
2017-08-04T02:15:30.591Z,59.50
2017-08-04T02:18:32.733Z,59.80
2017-08-04T02:21:34.164Z,59.70
2017-08-04T02:24:35.550Z,59.70
2017-08-04T02:27:36.912Z,60.40
2017-08-04T02:30:39.003Z,59.90
2017-08-04T02:33:40.387Z,59.80
2017-08-04T02:36:41.952Z,59.80
2017-08-04T02:39:43.282Z,59.10
2017-08-04T02:42:44.659Z,59.90
2017-08-04T02:45:45.974Z,60.40
2017-08-04T02:48:47.352Z,59.50
2017-08-04T02:51:48.685Z,59.80
2017-08-04T02:54:50.081Z,60.30
2017-08-04T02:57:52.236Z,60.60
2017-08-04T03:00:53.568Z,60.40
2017-08-04T03:03:54.934Z,60.00
2017-08-04T03:06:56.327Z,60.90
2017-08-04T03:09:57.703Z,60.40
2017-08-04T03:12:59.021Z,60.40
2017-08-04T03:16:00.417Z,60.00
2017-08-04T03:19:02.180Z,60.40
2017-08-04T03:22:03.531Z,59.90
2017-08-04T03:25:04.905Z,59.60
2017-08-04T03:28:06.574Z,59.80
2017-08-04T03:31:08.207Z,59.90
2017-08-04T03:34:09.551Z,59.80
2017-08-04T03:37:10.931Z,59.20
2017-08-04T03:40:13.014Z,60.20
2017-08-04T03:43:14.399Z,60.00
2017-08-04T03:46:15.859Z,59.30
2017-08-04T03:49:17.184Z,59.60
2017-08-04T03:52:18.529Z,58.80
2017-08-04T03:55:19.917Z,59.10
2017-08-04T03:58:21.309Z,60.10
2017-08-04T04:01:23.414Z,58.60
2017-08-04T04:04:24.810Z,58.50
2017-08-04T04:07:26.187Z,58.80
2017-08-04T04:10:27.556Z,58.50
2017-08-04T04:13:29.347Z,58.10
2017-08-04T04:16:30.750Z,58.70
2017-08-04T04:19:32.884Z,58.70
2017-08-04T04:22:34.254Z,58.60
2017-08-04T04:25:36.404Z,58.90
2017-08-04T04:28:37.731Z,58.90
2017-08-04T04:31:39.100Z,59.00
2017-08-04T04:34:40.766Z,58.70
2017-08-04T04:37:42.119Z,59.20
2017-08-04T04:40:43.574Z,59.10
2017-08-04T04:43:44.873Z,59.00
2017-08-04T04:46:46.238Z,59.10
2017-08-04T04:49:47.558Z,58.50
2017-08-04T04:52:48.931Z,58.40
2017-08-04T04:55:50.243Z,58.60
2017-08-04T04:58:52.363Z,59.00
2017-08-04T05:01:53.747Z,59.00
2017-08-04T05:04:55.811Z,59.30
2017-08-04T05:07:57.188Z,58.60
2017-08-04T05:10:58.476Z,58.20
2017-08-04T05:13:59.803Z,58.90
2017-08-04T05:17:01.111Z,58.50
2017-08-04T05:20:02.523Z,59.00
2017-08-04T05:23:03.872Z,59.40
2017-08-04T05:26:05.188Z,59.70
2017-08-04T05:29:06.523Z,59.70
2017-08-04T05:32:08.581Z,60.40
2017-08-04T05:35:09.973Z,60.30
2017-08-04T05:38:11.557Z,60.10
2017-08-04T05:41:12.911Z,61.00
2017-08-04T05:44:14.267Z,61.60
2017-08-04T05:47:15.590Z,61.50
2017-08-04T05:50:16.959Z,61.10
2017-08-04T05:53:18.290Z,60.90
2017-08-04T05:56:19.660Z,62.10
2017-08-04T05:59:20.980Z,62.30
2017-08-04T06:02:22.290Z,62.20
2017-08-04T06:05:24.456Z,60.80
2017-08-04T06:08:25.784Z,61.40
2017-08-04T06:11:27.144Z,61.70
2017-08-04T06:14:28.498Z,62.20
2017-08-04T06:17:29.883Z,62.00
2017-08-04T06:20:31.225Z,62.00
2017-08-04T06:23:33.329Z,62.20
2017-08-04T06:26:34.668Z,62.10
2017-08-04T06:29:36.099Z,61.60
2017-08-04T06:32:37.453Z,62.40
2017-08-04T06:35:38.809Z,62.00
2017-08-04T06:38:40.245Z,62.80
2017-08-04T06:41:42.304Z,61.60
2017-08-04T06:44:44.442Z,61.70
2017-08-04T06:47:45.996Z,61.60
2017-08-04T06:51:05.860Z,61.80
2017-08-04T07:04:52.229Z,60.70
2017-08-04T07:07:53.617Z,59.20
2017-08-04T07:10:55.026Z,60.20
2017-08-04T07:13:56.531Z,59.70
2017-08-04T07:16:57.867Z,60.20
2017-08-04T07:19:59.278Z,61.30
2017-08-04T07:23:01.367Z,60.10
2017-08-04T07:26:02.830Z,60.00
2017-08-04T07:29:04.161Z,60.00
2017-08-04T07:32:05.573Z,59.20
2017-08-04T07:35:06.902Z,59.60
2017-08-04T07:38:08.380Z,60.10
2017-08-04T07:41:09.880Z,60.00
2017-08-04T07:44:11.263Z,59.90
2017-08-04T07:47:12.655Z,62.50
2017-08-04T07:50:14.754Z,61.20
2017-08-04T07:53:16.169Z,61.10
2017-08-04T07:56:18.268Z,61.10
2017-08-04T07:59:19.638Z,61.10
2017-08-04T08:02:21.030Z,60.90
2017-08-04T08:05:23.155Z,61.10
2017-08-04T08:08:24.559Z,61.00
2017-08-04T08:11:26.651Z,59.50
2017-08-04T08:14:28.007Z,59.50
2017-08-04T08:17:29.387Z,61.00
2017-08-04T08:20:30.803Z,59.80
2017-08-04T08:23:32.283Z,60.30
2017-08-04T08:26:33.665Z,60.20
2017-08-04T08:29:35.034Z,60.80
2017-08-04T08:46:56.501Z,58.30
2017-08-04T08:49:57.934Z,59.30
2017-08-04T08:52:59.370Z,58.60
2017-08-04T08:56:01.222Z,59.20
2017-08-04T08:59:03.364Z,58.80
2017-08-04T09:02:04.785Z,58.80
2017-08-04T09:05:06.158Z,58.30
2017-08-04T09:08:07.573Z,58.30
2017-08-04T09:11:08.933Z,60.20
2017-08-04T09:14:10.308Z,59.00
2017-08-04T09:17:11.660Z,58.30
2017-08-04T09:21:05.658Z,61.50
2017-08-04T09:24:07.033Z,61.30
2017-08-04T09:27:09.165Z,57.80
2017-08-04T09:30:10.520Z,57.60
2017-08-04T09:33:12.059Z,62.50
2017-08-04T09:36:13.430Z,58.30
2017-08-04T09:39:14.877Z,58.90
2017-08-04T09:42:16.210Z,57.50
2017-08-04T09:45:17.605Z,58.30
2017-08-04T09:48:19.725Z,58.20
2017-08-04T09:51:21.116Z,58.20
2017-08-04T09:54:23.258Z,57.40
2017-08-04T09:57:24.626Z,57.30
2017-08-04T10:00:26.063Z,57.00
2017-08-04T10:03:27.390Z,57.60
2017-08-04T10:06:28.791Z,57.60
2017-08-04T10:09:30.157Z,58.00
2017-08-04T10:12:32.258Z,58.10
2017-08-04T10:15:33.708Z,57.90
2017-08-04T10:18:35.094Z,58.30
2017-08-04T10:21:36.525Z,58.60
2017-08-04T10:24:37.901Z,57.50
2017-08-04T10:27:39.255Z,57.80
2017-08-04T10:30:40.607Z,58.00
2017-08-04T10:33:41.981Z,58.20
2017-08-04T10:36:44.251Z,57.90
2017-08-04T10:39:46.397Z,59.10
2017-08-04T10:42:47.791Z,59.00
2017-08-04T10:45:49.144Z,57.70
2017-08-04T10:48:50.546Z,57.30
2017-08-04T10:51:51.920Z,57.10
2017-08-04T10:54:54.089Z,57.70
2017-08-04T10:57:56.192Z,57.70
2017-08-04T11:00:58.362Z,58.20
2017-08-04T11:04:00.890Z,57.40
2017-08-04T11:07:02.235Z,57.30
2017-08-04T11:10:04.103Z,58.40
2017-08-04T11:13:05.447Z,58.90
2017-08-04T11:16:06.846Z,57.30
2017-08-04T11:19:08.964Z,57.10
2017-08-04T11:22:10.404Z,57.10
2017-08-04T11:25:11.777Z,57.60
2017-08-04T11:28:13.168Z,59.20
2017-08-04T11:31:15.309Z,57.40
2017-08-04T11:34:16.786Z,57.30
2017-08-04T11:37:19.118Z,59.80
2017-08-04T11:40:23.318Z,59.30
2017-08-04T11:43:24.732Z,58.30
2017-08-04T11:46:27.428Z,58.00
2017-08-04T11:49:31.136Z,59.00
2017-08-04T11:52:35.552Z,59.00
2017-08-04T11:55:38.208Z,58.70
2017-08-04T11:58:39.621Z,58.40
2017-08-04T12:01:41.671Z,59.20
2017-08-04T12:04:43.245Z,58.30
2017-08-04T12:07:44.603Z,58.10
2017-08-04T12:10:46.062Z,58.60
2017-08-04T12:13:47.434Z,58.90
2017-08-04T12:16:48.833Z,57.90
2017-08-04T12:19:50.217Z,57.50
2017-08-04T12:22:51.619Z,57.20
2017-08-04T12:25:52.974Z,57.70
2017-08-04T12:28:54.392Z,57.60
2017-08-04T12:31:56.105Z,58.50
2017-08-04T12:34:57.532Z,56.40
2017-08-04T12:37:58.947Z,56.90
2017-08-04T12:41:00.362Z,59.00
2017-08-04T12:44:01.792Z,57.10
2017-08-04T12:47:03.171Z,58.40
2017-08-04T12:50:04.635Z,58.40
2017-08-04T12:53:06.058Z,58.30
2017-08-04T12:56:07.536Z,59.10
2017-08-04T12:59:09.007Z,59.40
2017-08-04T13:02:10.445Z,60.10
2017-08-04T13:05:11.869Z,59.70
2017-08-04T13:08:13.276Z,58.50
2017-08-04T13:11:15.452Z,57.00
2017-08-04T13:14:17.624Z,57.10
2017-08-04T13:17:19.827Z,59.00
2017-08-04T13:20:28.454Z,58.80
2017-08-04T13:23:29.886Z,57.80
2017-08-04T13:26:31.339Z,58.70
2017-08-04T13:29:32.766Z,58.30
2017-08-04T13:32:34.917Z,57.20
2017-08-04T13:35:36.326Z,57.10
2017-08-04T13:38:43.759Z,57.00
2017-08-04T13:41:45.325Z,56.70
2017-08-04T13:44:46.735Z,59.00
2017-08-04T13:47:48.140Z,57.20
2017-08-04T13:50:49.498Z,56.80
2017-08-04T13:53:50.931Z,57.30
2017-08-04T13:56:52.313Z,57.40
2017-08-04T13:59:53.713Z,57.20
2017-08-04T14:02:55.808Z,58.10
2017-08-04T14:05:57.225Z,58.10
2017-08-04T14:08:59.532Z,58.50
2017-08-04T14:12:00.887Z,58.40
2017-08-04T14:15:02.361Z,57.30
2017-08-04T14:18:03.785Z,57.20
2017-08-04T14:21:05.228Z,57.90
2017-08-04T14:24:06.581Z,59.60
2017-08-04T14:27:07.958Z,57.10
2017-08-04T14:30:09.377Z,57.30
2017-08-04T14:33:10.760Z,57.50
2017-08-04T14:36:12.289Z,57.60
2017-08-04T14:39:13.652Z,58.60
2017-08-04T14:42:15.133Z,57.60
2017-08-04T14:45:16.486Z,57.50
2017-08-04T14:48:17.897Z,58.90
2017-08-04T14:51:19.257Z,56.50
2017-08-04T14:54:20.667Z,57.50
2017-08-04T14:57:22.885Z,56.70
2017-08-04T15:00:31.253Z,56.70
2017-08-04T15:03:33.710Z,57.20
2017-08-04T15:06:35.064Z,57.20
2017-08-04T15:09:36.437Z,58.40
2017-08-04T15:12:38.527Z,57.30
2017-08-04T15:15:39.957Z,57.30
2017-08-04T15:18:42.053Z,58.70
2017-08-04T15:21:43.422Z,58.60
2017-08-04T15:24:44.842Z,57.90
2017-08-04T15:27:46.231Z,57.10
2017-08-04T15:30:47.724Z,57.40
2017-08-04T15:33:49.857Z,56.70
2017-08-04T15:36:51.263Z,56.50
2017-08-04T15:39:52.619Z,56.20
2017-08-04T15:42:54.047Z,56.50
2017-08-04T15:45:56.166Z,56.50
2017-08-04T15:48:57.573Z,56.40
2017-08-04T15:51:59.684Z,58.00
2017-08-04T15:55:01.096Z,57.90
2017-08-04T15:58:03.215Z,57.80
2017-08-04T16:01:04.609Z,57.10
2017-08-04T16:04:06.695Z,57.50
2017-08-04T16:07:08.096Z,57.40
2017-08-04T16:10:09.458Z,56.80
2017-08-04T16:13:10.844Z,57.00
2017-08-04T16:16:12.207Z,57.10
2017-08-04T16:19:13.578Z,55.30
2017-08-04T16:22:14.950Z,57.10
2017-08-04T16:25:16.379Z,57.50
2017-08-04T16:28:17.892Z,58.30
2017-08-04T16:31:21.870Z,58.70
2017-08-04T16:34:24.156Z,57.10
2017-08-04T16:37:25.584Z,56.90
2017-08-04T16:40:27.127Z,57.40
2017-08-04T16:43:28.544Z,58.70
2017-08-04T16:46:30.000Z,56.80
2017-08-04T16:49:31.442Z,55.10
2017-08-04T16:52:32.924Z,54.90
2017-08-04T16:55:34.484Z,54.60
2017-08-04T16:58:35.888Z,55.00
2017-08-04T17:01:37.362Z,56.10
2017-08-04T17:04:38.836Z,55.30
2017-08-04T17:07:40.287Z,55.00
2017-08-04T17:10:41.686Z,55.20
2017-08-04T17:13:43.157Z,54.30
2017-08-04T17:16:44.755Z,55.00
2017-08-04T17:19:46.171Z,54.60
2017-08-04T17:22:47.635Z,54.80
2017-08-04T17:25:49.034Z,55.80
2017-08-04T17:28:51.238Z,54.30
2017-08-04T17:31:52.663Z,54.20
2017-08-04T17:34:54.082Z,54.70
2017-08-04T17:37:55.463Z,54.60
2017-08-04T17:40:57.626Z,55.90
2017-08-04T17:43:59.711Z,55.90
2017-08-04T17:47:01.142Z,55.80
2017-08-04T17:50:02.520Z,55.60
2017-08-04T17:53:03.933Z,55.60
2017-08-04T17:56:05.318Z,56.10
2017-08-04T17:59:06.705Z,56.20
2017-08-04T18:02:08.160Z,56.10
2017-08-04T18:05:09.589Z,55.40
2017-08-04T18:08:11.060Z,55.90
2017-08-04T18:11:12.456Z,56.00
2017-08-04T18:14:14.621Z,56.00
2017-08-04T18:17:16.827Z,55.10
2017-08-04T18:20:18.276Z,55.50
2017-08-04T18:23:19.760Z,55.30
2017-08-04T18:26:21.152Z,55.50
2017-08-04T18:29:23.317Z,55.80
2017-08-04T18:32:28.156Z,55.10
2017-08-04T18:35:29.953Z,55.00
2017-08-04T18:38:31.348Z,55.80
2017-08-04T18:41:32.822Z,55.40
2017-08-04T18:44:35.198Z,55.60
2017-08-04T18:47:37.365Z,55.70
2017-08-04T18:50:41.442Z,56.50
2017-08-04T18:53:42.935Z,56.50
2017-08-04T18:56:45.151Z,55.60
2017-08-04T18:59:46.546Z,55.50
2017-08-04T19:02:48.777Z,55.60
2017-08-04T19:05:50.151Z,55.60
2017-08-04T19:08:51.592Z,56.50
2017-08-04T19:11:53.046Z,56.70
2017-08-04T19:14:54.438Z,56.50
2017-08-04T19:17:56.602Z,58.00
2017-08-04T19:20:58.745Z,58.30
2017-08-04T19:24:00.202Z,58.90
2017-08-04T19:27:01.625Z,58.40
2017-08-04T19:30:03.110Z,58.80
2017-08-04T19:33:04.502Z,58.90
2017-08-04T19:36:05.854Z,58.90
2017-08-04T19:39:07.333Z,60.10
2017-08-04T19:42:08.739Z,59.90
2017-08-04T19:45:10.182Z,60.10
2017-08-04T19:48:11.572Z,61.10
2017-08-04T19:51:13.838Z,61.00
2017-08-04T19:54:15.211Z,60.90
2017-08-04T19:57:16.610Z,61.90
2017-08-04T20:00:17.970Z,61.90
2017-08-04T20:03:19.389Z,61.60
2017-08-04T20:06:20.965Z,62.10
2017-08-04T20:09:22.306Z,62.30
2017-08-04T20:12:23.784Z,62.30
2017-08-04T20:15:25.162Z,62.10
2017-08-04T20:18:26.566Z,62.60
2017-08-04T20:21:27.920Z,61.80
2017-08-04T20:24:29.497Z,62.90
2017-08-04T20:27:30.889Z,62.20
2017-08-04T20:30:32.447Z,62.80
2017-08-04T20:33:34.728Z,63.10
2017-08-04T20:36:37.100Z,63.10
2017-08-04T20:39:38.743Z,64.00
2017-08-04T20:42:41.066Z,62.10
2017-08-04T20:45:42.564Z,63.20
2017-08-04T20:48:44.017Z,61.90
2017-08-04T20:51:45.539Z,62.90
2017-08-04T20:54:47.070Z,63.50
2017-08-04T20:57:48.761Z,63.40
2017-08-04T21:00:50.670Z,62.60
2017-08-04T21:03:52.798Z,63.50
2017-08-04T21:06:55.212Z,63.90
2017-08-04T21:09:56.792Z,63.70
2017-08-04T21:12:59.781Z,62.30
2017-08-04T21:16:01.289Z,63.70
2017-08-04T21:19:03.804Z,64.50
2017-08-04T21:22:05.357Z,63.00
2017-08-04T21:25:06.905Z,64.60
2017-08-04T21:28:08.480Z,62.80
2017-08-04T21:31:09.999Z,64.20
2017-08-04T21:34:12.217Z,65.50
2017-08-04T21:37:13.709Z,64.60
2017-08-04T21:40:15.270Z,64.30
2017-08-04T21:43:16.807Z,65.00
2017-08-04T21:46:18.438Z,63.70
2017-08-04T21:49:19.927Z,63.60
2017-08-04T21:52:21.512Z,64.60
2017-08-04T21:55:23.080Z,63.80
2017-08-04T21:58:24.667Z,65.00
2017-08-04T22:01:26.216Z,65.00
2017-08-04T22:04:28.533Z,65.30
2017-08-04T22:07:30.028Z,64.60
2017-08-04T22:10:31.563Z,64.10
2017-08-04T22:13:33.299Z,64.60
2017-08-04T22:16:34.764Z,64.40
2017-08-04T22:19:36.324Z,64.70
2017-08-04T22:22:37.890Z,65.20
2017-08-04T22:25:39.356Z,64.60
2017-08-04T22:28:40.872Z,63.90
2017-08-04T22:31:42.431Z,64.10
2017-08-04T22:34:44.127Z,63.70
2017-08-04T22:37:45.616Z,65.40
2017-08-04T22:40:47.922Z,65.30
2017-08-04T22:43:49.435Z,65.00
2017-08-04T22:46:50.984Z,63.10
2017-08-04T22:49:52.442Z,64.70
2017-08-04T22:52:53.988Z,65.00
2017-08-04T22:55:55.479Z,64.30
2017-08-04T22:58:57.077Z,64.80
2017-08-04T23:01:58.611Z,65.60
2017-08-04T23:05:00.194Z,63.90
2017-08-04T23:08:01.857Z,65.20
2017-08-04T23:11:03.433Z,63.40
2017-08-04T23:14:05.030Z,63.60
2017-08-04T23:17:07.287Z,65.10
2017-08-04T23:20:08.900Z,63.50
2017-08-04T23:23:10.503Z,64.30
2017-08-04T23:26:12.128Z,63.80
2017-08-04T23:29:13.785Z,64.50
2017-08-04T23:32:16.164Z,65.90
2017-08-04T23:35:17.735Z,64.60
2017-08-04T23:38:19.260Z,64.90
2017-08-04T23:41:20.830Z,64.50
2017-08-04T23:44:22.436Z,63.20
2017-08-04T23:47:24.014Z,64.60
2017-08-04T23:50:25.578Z,65.30
2017-08-04T23:53:27.129Z,63.90
2017-08-04T23:56:28.978Z,65.90
2017-08-04T23:59:30.506Z,63.40
